createdAt,value
2022-08-28T00:00:17.961Z,17.10
2022-08-28T00:01:17.896Z,17.90
2022-08-28T00:02:17.867Z,16.20
2022-08-28T00:03:17.882Z,17.30
2022-08-28T00:04:17.916Z,17.50
2022-08-28T00:05:17.817Z,14.90
2022-08-28T00:06:17.828Z,17.00
2022-08-28T00:07:18.828Z,16.50
2022-08-28T00:08:17.818Z,17.10
2022-08-28T00:09:17.828Z,16.70
2022-08-28T00:10:17.749Z,20.60
2022-08-28T00:11:17.759Z,21.00
2022-08-28T00:12:17.710Z,17.90
2022-08-28T00:13:17.750Z,18.50
2022-08-28T00:14:18.772Z,20.80
2022-08-28T00:15:17.681Z,19.40
2022-08-28T00:16:17.727Z,17.30
2022-08-28T00:17:17.771Z,17.80
2022-08-28T00:18:17.679Z,20.30
2022-08-28T00:19:38.998Z,19.00
2022-08-28T00:20:17.691Z,19.30
2022-08-28T00:21:17.742Z,21.80
2022-08-28T00:22:17.703Z,20.30
2022-08-28T00:23:17.616Z,17.10
2022-08-28T00:25:27.792Z,15.50
2022-08-28T00:26:27.891Z,17.30
2022-08-28T00:27:27.773Z,20.40
2022-08-28T00:28:27.773Z,17.50
2022-08-28T00:29:27.792Z,23.90
2022-08-28T00:30:29.801Z,17.80
2022-08-28T00:31:27.914Z,21.30
2022-08-28T00:32:27.804Z,22.40
2022-08-28T00:33:27.719Z,20.50
2022-08-28T00:34:32.033Z,22.30
2022-08-28T00:35:28.756Z,20.90
2022-08-28T00:36:27.767Z,24.30
2022-08-28T00:37:27.745Z,19.60
2022-08-28T00:38:27.648Z,22.80
2022-08-28T00:39:27.659Z,24.60
2022-08-28T00:40:28.513Z,24.00
2022-08-28T00:41:27.615Z,26.00
2022-08-28T00:42:27.566Z,23.90
2022-08-28T00:43:27.556Z,23.50
2022-08-28T00:44:27.598Z,22.30
2022-08-28T00:45:27.587Z,24.30
2022-08-28T00:46:27.579Z,21.90
2022-08-28T00:47:28.529Z,25.80
2022-08-28T00:48:27.508Z,23.00
2022-08-28T00:49:27.506Z,24.60
2022-08-28T00:50:27.529Z,25.50
2022-08-28T00:51:27.468Z,25.20
2022-08-28T00:52:27.538Z,29.10
2022-08-28T00:53:32.654Z,22.60
2022-08-28T00:54:28.418Z,24.10
2022-08-28T00:55:27.451Z,27.40
2022-08-28T00:56:27.409Z,25.10
2022-08-28T00:57:27.479Z,24.80
2022-08-28T00:58:27.482Z,23.30
2022-08-28T00:59:28.402Z,21.30
2022-08-28T01:00:27.354Z,25.20
2022-08-28T01:01:27.472Z,20.40
2022-08-28T01:02:27.527Z,21.70
2022-08-28T01:03:27.428Z,22.70
2022-08-28T01:04:27.314Z,25.70
2022-08-28T01:05:27.311Z,23.10
2022-08-28T01:06:27.362Z,19.60
2022-08-28T01:07:27.332Z,26.50
2022-08-28T01:08:30.363Z,20.60
2022-08-28T01:09:27.240Z,22.70
2022-08-28T01:10:50.232Z,24.00
2022-08-28T01:11:27.252Z,23.30
2022-08-28T01:12:27.264Z,27.00
2022-08-28T01:13:27.288Z,26.10
2022-08-28T01:14:27.184Z,21.90
2022-08-28T01:15:27.155Z,23.40
2022-08-28T01:16:27.144Z,23.60
2022-08-28T01:17:28.236Z,27.00
2022-08-28T01:18:27.227Z,25.60
2022-08-28T01:19:27.115Z,19.30
2022-08-28T01:20:27.106Z,24.50
2022-08-28T01:21:27.095Z,24.40
2022-08-28T01:22:27.057Z,21.80
2022-08-28T01:23:27.137Z,18.50
2022-08-28T01:24:34.554Z,21.10
2022-08-28T01:25:27.020Z,23.60
2022-08-28T01:26:28.019Z,23.40
2022-08-28T01:27:26.993Z,21.70
2022-08-28T01:28:26.985Z,24.10
2022-08-28T01:29:26.970Z,24.80
2022-08-28T01:30:26.953Z,22.30
2022-08-28T01:31:28.018Z,29.80
2022-08-28T01:32:26.942Z,26.90
2022-08-28T01:33:27.948Z,23.40
2022-08-28T01:34:26.902Z,20.40
2022-08-28T01:35:26.892Z,18.00
2022-08-28T01:36:26.892Z,22.30
2022-08-28T01:37:26.864Z,23.70
2022-08-28T01:38:27.114Z,21.10
2022-08-28T01:39:26.840Z,23.50
2022-08-28T01:40:26.857Z,26.50
2022-08-28T01:41:27.825Z,24.10
2022-08-28T01:42:26.818Z,20.20
2022-08-28T01:43:26.794Z,25.70
2022-08-28T01:44:26.784Z,26.30
2022-08-28T01:45:26.755Z,19.90
2022-08-28T01:46:26.808Z,21.00
2022-08-28T01:47:26.756Z,23.90
2022-08-28T01:48:26.726Z,28.30
2022-08-28T01:49:26.715Z,19.10
2022-08-28T01:50:27.696Z,22.90
2022-08-28T01:51:26.690Z,23.60
2022-08-28T01:52:27.689Z,23.10
2022-08-28T01:53:30.736Z,24.50
2022-08-28T01:54:27.649Z,23.10
2022-08-28T01:55:47.648Z,20.80
2022-08-28T01:56:26.605Z,23.20
2022-08-28T01:57:26.606Z,21.30
2022-08-28T01:58:26.596Z,25.90
2022-08-28T01:59:26.598Z,21.30
2022-08-28T02:00:26.575Z,24.60
2022-08-28T02:01:26.597Z,22.50
2022-08-28T02:02:27.538Z,24.90
2022-08-28T02:03:26.551Z,21.10
2022-08-28T02:04:31.864Z,23.20
2022-08-28T02:05:27.508Z,22.20
2022-08-28T02:06:26.508Z,22.30
2022-08-28T02:07:26.470Z,22.10
2022-08-28T02:08:26.471Z,26.10
2022-08-28T02:09:26.463Z,22.90
2022-08-28T02:10:26.449Z,23.70
2022-08-28T02:11:26.440Z,21.30
2022-08-28T02:12:28.451Z,21.90
2022-08-28T02:13:26.407Z,26.80
2022-08-28T02:14:26.401Z,23.20
2022-08-28T02:15:26.437Z,22.10
2022-08-28T02:16:26.380Z,23.50
2022-08-28T02:17:26.352Z,22.20
2022-08-28T02:18:26.338Z,23.10
2022-08-28T02:19:26.322Z,20.90
2022-08-28T02:20:26.301Z,20.50
2022-08-28T02:21:26.313Z,21.70
2022-08-28T02:22:26.281Z,19.40
2022-08-28T02:23:26.273Z,18.70
2022-08-28T02:24:26.263Z,22.50
2022-08-28T02:25:26.244Z,22.00
2022-08-28T02:26:26.233Z,19.40
2022-08-28T02:27:27.223Z,20.90
2022-08-28T02:28:26.200Z,19.00
2022-08-28T02:29:26.194Z,22.30
2022-08-28T02:30:26.170Z,20.10
2022-08-28T02:31:26.233Z,23.60
2022-08-28T02:32:26.147Z,22.70
2022-08-28T02:33:26.145Z,17.70
2022-08-28T02:34:27.128Z,20.10
2022-08-28T02:35:27.115Z,23.40
2022-08-28T02:36:26.105Z,21.00
2022-08-28T02:37:26.090Z,23.00
2022-08-28T02:38:26.075Z,21.10
2022-08-28T02:39:26.055Z,15.40
2022-08-28T02:40:26.112Z,18.30
2022-08-28T02:41:27.060Z,21.70
2022-08-28T02:42:26.017Z,23.80
2022-08-28T02:43:26.034Z,20.90
2022-08-28T02:44:26.007Z,20.40
2022-08-28T02:45:25.998Z,18.80
2022-08-28T02:46:26.023Z,18.70
2022-08-28T02:47:25.979Z,20.10
2022-08-28T02:48:25.937Z,21.20
2022-08-28T02:49:25.938Z,22.40
2022-08-28T02:50:27.919Z,22.50
2022-08-28T02:51:25.922Z,19.10
2022-08-28T02:52:25.900Z,20.90
2022-08-28T02:53:25.879Z,23.50
2022-08-28T02:54:25.875Z,24.40
2022-08-28T02:55:25.865Z,24.60
2022-08-28T02:56:25.870Z,18.80
2022-08-28T02:57:25.851Z,18.70
2022-08-28T02:58:25.823Z,25.30
2022-08-28T02:59:25.820Z,24.20
2022-08-28T03:00:25.790Z,22.80
2022-08-28T03:01:25.851Z,21.00
2022-08-28T03:02:25.826Z,21.20
2022-08-28T03:03:25.760Z,21.00
2022-08-28T03:04:25.737Z,21.00
2022-08-28T03:05:25.722Z,20.80
2022-08-28T03:06:25.722Z,23.70
2022-08-28T03:07:25.713Z,26.50
2022-08-28T03:08:27.290Z,21.80
2022-08-28T03:09:25.671Z,24.60
2022-08-28T03:10:25.664Z,20.80
2022-08-28T03:11:25.665Z,20.60
2022-08-28T03:12:25.643Z,20.80
2022-08-28T03:13:27.288Z,22.20
2022-08-28T03:14:25.612Z,20.40
2022-08-28T03:15:25.594Z,22.30
2022-08-28T03:16:25.720Z,19.90
2022-08-28T03:17:25.574Z,19.40
2022-08-28T03:18:25.657Z,19.20
2022-08-28T03:19:25.545Z,16.70
2022-08-28T03:20:25.647Z,18.80
2022-08-28T03:21:25.604Z,20.40
2022-08-28T03:22:25.509Z,21.30
2022-08-28T03:23:25.576Z,21.80
2022-08-28T03:24:25.577Z,22.00
2022-08-28T03:25:26.510Z,22.40
2022-08-28T03:26:25.487Z,23.50
2022-08-28T03:27:25.538Z,19.30
2022-08-28T03:28:25.540Z,19.70
2022-08-28T03:29:25.507Z,21.90
2022-08-28T03:30:25.625Z,24.10
2022-08-28T03:31:25.419Z,24.00
2022-08-28T03:32:26.438Z,21.70
2022-08-28T03:33:25.488Z,23.00
2022-08-28T03:34:26.369Z,22.60
2022-08-28T03:35:25.453Z,21.10
2022-08-28T03:36:25.349Z,20.70
2022-08-28T03:37:25.359Z,24.00
2022-08-28T03:38:25.917Z,24.30
2022-08-28T03:39:25.370Z,22.10
2022-08-28T03:40:25.535Z,23.90
2022-08-28T03:41:25.290Z,24.40
2022-08-28T03:42:25.300Z,22.70
2022-08-28T03:43:25.352Z,21.60
2022-08-28T03:44:25.311Z,22.30
2022-08-28T03:45:25.210Z,21.00
2022-08-28T03:46:25.263Z,17.30
2022-08-28T03:47:25.223Z,17.80
2022-08-28T03:48:25.273Z,21.40
2022-08-28T03:49:25.243Z,24.00
2022-08-28T04:03:52.687Z,23.90
2022-08-28T04:04:52.795Z,24.40
2022-08-28T04:05:52.654Z,26.50
2022-08-28T04:06:52.710Z,30.70
2022-08-28T04:07:52.725Z,28.90
2022-08-28T04:08:54.687Z,29.20
2022-08-28T04:09:54.667Z,29.50
2022-08-28T04:10:52.584Z,29.70
2022-08-28T04:11:52.616Z,22.80
2022-08-28T04:12:52.667Z,22.20
2022-08-28T04:13:52.648Z,20.40
2022-08-28T04:14:53.577Z,20.40
2022-08-28T04:15:52.534Z,21.70
2022-08-28T04:16:52.633Z,25.40
2022-08-28T04:17:52.559Z,25.80
2022-08-28T04:18:52.580Z,22.30
2022-08-28T04:19:52.579Z,24.60
2022-08-28T04:20:52.456Z,25.90
2022-08-28T04:21:52.469Z,27.50
2022-08-28T04:22:55.184Z,22.30
2022-08-28T04:23:52.420Z,28.10
2022-08-28T04:24:52.410Z,26.50
2022-08-28T04:25:52.394Z,26.60
2022-08-28T04:26:52.380Z,27.50
2022-08-28T04:27:52.399Z,25.00
2022-08-28T04:28:52.770Z,25.00
2022-08-28T04:29:52.450Z,24.30
2022-08-28T04:30:52.341Z,20.30
2022-08-28T04:33:02.563Z,23.60
2022-08-28T04:34:02.624Z,21.40
2022-08-28T04:35:02.615Z,21.50
2022-08-28T04:36:02.523Z,20.50
2022-08-28T04:37:02.525Z,22.50
2022-08-28T04:38:05.505Z,23.90
2022-08-28T04:39:02.547Z,26.70
2022-08-28T04:40:02.621Z,25.10
2022-08-28T04:41:02.566Z,25.10
2022-08-28T04:42:02.445Z,22.90
2022-08-28T04:43:02.496Z,19.30
2022-08-28T04:44:02.488Z,23.10
2022-08-28T04:45:02.489Z,20.70
2022-08-28T04:46:02.523Z,21.00
2022-08-28T04:47:02.373Z,21.20
2022-08-28T04:48:03.312Z,22.80
2022-08-28T04:49:03.438Z,21.70
2022-08-28T04:50:02.408Z,23.70
2022-08-28T04:51:02.299Z,22.60
2022-08-28T04:52:02.350Z,18.70
2022-08-28T04:53:02.299Z,17.80
2022-08-28T04:54:02.269Z,19.40
2022-08-28T04:55:03.358Z,20.50
2022-08-28T04:56:02.350Z,16.50
2022-08-28T04:57:02.233Z,19.10
2022-08-28T04:58:02.309Z,19.80
2022-08-28T04:59:02.280Z,21.90
2022-08-28T05:00:02.202Z,22.10
2022-08-28T05:01:02.193Z,22.00
2022-08-28T05:02:02.281Z,19.30
2022-08-28T05:03:02.242Z,20.70
2022-08-28T05:04:02.163Z,18.00
2022-08-28T05:05:02.191Z,16.90
2022-08-28T05:06:02.370Z,19.50
2022-08-28T05:07:02.211Z,22.00
2022-08-28T05:08:03.243Z,22.80
2022-08-28T05:09:02.127Z,24.80
2022-08-28T05:10:02.107Z,25.10
2022-08-28T05:11:02.101Z,22.10
2022-08-28T05:12:02.073Z,19.60
2022-08-28T05:13:02.141Z,22.40
2022-08-28T05:14:02.056Z,18.30
2022-08-28T05:15:02.136Z,20.40
2022-08-28T05:16:02.059Z,19.30
2022-08-28T05:17:01.999Z,25.60
2022-08-28T05:18:02.037Z,19.70
2022-08-28T05:19:03.436Z,20.40
2022-08-28T05:20:01.966Z,22.50
2022-08-28T05:21:01.968Z,18.80
2022-08-28T05:22:01.918Z,20.40
2022-08-28T05:23:01.918Z,20.80
2022-08-28T05:24:01.909Z,18.60
2022-08-28T05:25:01.908Z,20.90
2022-08-28T05:26:01.991Z,20.60
2022-08-28T05:27:01.897Z,21.70
2022-08-28T05:28:01.848Z,16.30
2022-08-28T05:29:01.945Z,17.90
2022-08-28T05:30:03.905Z,17.00
2022-08-28T05:31:01.900Z,16.60
2022-08-28T05:32:01.857Z,21.40
2022-08-28T05:33:01.770Z,17.10
2022-08-28T05:34:01.867Z,17.00
2022-08-28T05:35:01.751Z,16.50
2022-08-28T05:36:01.846Z,18.70
2022-08-28T05:37:01.842Z,19.50
2022-08-28T05:38:01.729Z,17.50
2022-08-28T05:39:01.783Z,17.80
2022-08-28T05:40:01.817Z,16.80
2022-08-28T05:41:02.724Z,14.90
2022-08-28T05:42:02.723Z,17.70
2022-08-28T05:43:01.702Z,19.30
2022-08-28T05:44:01.712Z,20.20
2022-08-28T05:45:01.736Z,16.90
2022-08-28T05:46:01.672Z,16.60
2022-08-28T05:47:01.663Z,16.30
2022-08-28T05:48:01.585Z,17.40
2022-08-28T05:49:01.596Z,18.80
2022-08-28T05:50:01.592Z,16.70
2022-08-28T05:51:01.701Z,15.70
2022-08-28T05:52:01.698Z,20.20
2022-08-28T05:53:01.596Z,15.00
2022-08-28T05:54:01.569Z,17.50
2022-08-28T05:55:01.519Z,20.30
2022-08-28T05:56:01.580Z,17.10
2022-08-28T05:57:01.601Z,21.20
2022-08-28T05:58:01.473Z,19.30
2022-08-28T05:59:01.447Z,21.30
2022-08-28T06:00:01.518Z,19.50
2022-08-28T06:01:01.504Z,17.90
2022-08-28T06:02:04.320Z,18.50
2022-08-28T06:03:01.388Z,17.00
2022-08-28T06:04:01.449Z,18.60
2022-08-28T06:05:02.341Z,15.30
2022-08-28T06:06:01.339Z,15.10
2022-08-28T06:07:01.349Z,14.70
2022-08-28T06:08:01.297Z,15.70
2022-08-28T06:09:02.308Z,14.00
2022-08-28T06:10:02.292Z,13.70
2022-08-28T06:11:01.279Z,15.10
2022-08-28T06:12:01.884Z,14.90
2022-08-28T06:13:01.239Z,15.30
2022-08-28T06:14:01.469Z,14.40
2022-08-28T06:15:01.210Z,12.50
2022-08-28T06:16:01.245Z,14.80
2022-08-28T06:17:01.190Z,14.70
2022-08-28T06:18:01.171Z,14.70
2022-08-28T06:19:01.162Z,15.20
2022-08-28T06:20:01.142Z,15.60
2022-08-28T06:21:01.132Z,15.00
2022-08-28T06:22:01.133Z,15.70
2022-08-28T06:23:02.112Z,13.60
2022-08-28T06:24:01.122Z,14.40
2022-08-28T06:25:01.084Z,15.40
2022-08-28T06:26:01.076Z,14.40
2022-08-28T06:27:01.068Z,13.60
2022-08-28T06:28:01.041Z,13.40
2022-08-28T06:29:01.036Z,12.00
2022-08-28T06:30:01.014Z,13.40
2022-08-28T06:31:18.358Z,12.90
2022-08-28T06:32:02.023Z,13.00
2022-08-28T06:33:00.972Z,12.90
2022-08-28T06:34:00.976Z,14.70
2022-08-28T06:35:00.968Z,15.60
2022-08-28T06:36:00.935Z,13.80
2022-08-28T06:37:00.938Z,13.10
2022-08-28T06:38:00.907Z,17.60
2022-08-28T06:39:00.916Z,14.70
2022-08-28T06:40:00.933Z,11.20
2022-08-28T06:41:00.877Z,13.30
2022-08-28T06:42:01.287Z,14.70
2022-08-28T06:43:00.857Z,15.20
2022-08-28T06:44:00.845Z,13.10
2022-08-28T06:45:00.807Z,11.40
2022-08-28T06:46:01.849Z,13.10
2022-08-28T06:47:00.793Z,11.70
2022-08-28T06:48:00.790Z,13.30
2022-08-28T06:49:00.778Z,13.70
2022-08-28T06:50:00.747Z,12.20
2022-08-28T06:51:01.750Z,15.50
2022-08-28T06:52:00.729Z,12.40
2022-08-28T06:53:00.741Z,13.50
2022-08-28T06:54:00.699Z,15.10
2022-08-28T06:55:01.680Z,14.80
2022-08-28T06:56:00.670Z,15.50
2022-08-28T06:57:00.668Z,12.70
2022-08-28T06:58:00.650Z,13.50
2022-08-28T06:59:00.636Z,14.30
2022-08-28T07:00:00.630Z,13.70
2022-08-28T07:01:02.962Z,12.70
2022-08-28T07:02:00.720Z,13.50
2022-08-28T07:03:00.658Z,12.60
2022-08-28T07:04:00.563Z,12.00
2022-08-28T07:05:00.569Z,12.30
2022-08-28T07:06:00.543Z,10.10
2022-08-28T07:07:00.533Z,10.50
2022-08-28T07:08:00.523Z,11.60
2022-08-28T07:09:00.495Z,10.60
2022-08-28T07:10:00.498Z,12.60
2022-08-28T07:11:00.482Z,12.10
2022-08-28T07:12:00.453Z,11.40
2022-08-28T07:13:00.454Z,11.60
2022-08-28T07:14:00.424Z,11.20
2022-08-28T07:15:00.435Z,11.10
2022-08-28T07:16:00.460Z,10.20
2022-08-28T07:17:00.394Z,12.10
2022-08-28T07:18:00.372Z,11.90
2022-08-28T07:19:00.366Z,10.60
2022-08-28T07:20:00.356Z,11.90
2022-08-28T07:21:00.344Z,10.50
2022-08-28T07:22:00.327Z,11.20
2022-08-28T07:23:00.306Z,13.00
2022-08-28T07:24:00.297Z,10.90
2022-08-28T07:25:00.296Z,9.80
2022-08-28T07:26:00.268Z,11.00
2022-08-28T07:27:01.260Z,11.60
2022-08-28T07:28:00.247Z,11.90
2022-08-28T07:29:10.436Z,10.50
2022-08-28T07:30:02.238Z,11.20
2022-08-28T07:31:00.263Z,11.60
2022-08-28T07:32:00.197Z,10.30
2022-08-28T07:33:00.201Z,10.20
2022-08-28T07:34:00.178Z,11.10
2022-08-28T07:35:00.189Z,10.90
2022-08-28T07:36:00.149Z,10.70
2022-08-28T07:37:00.129Z,9.60
2022-08-28T07:38:00.103Z,9.10
2022-08-28T07:39:00.110Z,10.40
2022-08-28T07:40:00.210Z,9.60
2022-08-28T07:41:00.091Z,9.40
2022-08-28T07:42:00.056Z,8.70
2022-08-28T07:43:00.063Z,9.50
2022-08-28T07:44:00.041Z,9.90
2022-08-28T07:45:00.041Z,8.40
2022-08-28T07:46:00.079Z,8.20
2022-08-28T07:46:59.992Z,8.10
2022-08-28T07:47:59.993Z,8.10
2022-08-28T07:48:59.984Z,8.30
2022-08-28T07:49:59.973Z,8.50
2022-08-28T07:50:59.942Z,7.90
2022-08-28T07:51:59.941Z,8.30
2022-08-28T07:52:59.925Z,7.20
2022-08-28T07:53:59.911Z,7.10
2022-08-28T07:54:59.913Z,7.90
2022-08-28T07:55:59.883Z,7.50
2022-08-28T07:56:59.873Z,7.20
2022-08-28T07:57:59.856Z,6.60
2022-08-28T07:58:59.861Z,6.90
2022-08-28T07:59:59.847Z,6.60
2022-08-28T08:00:59.825Z,6.80
2022-08-28T08:01:59.804Z,6.70
2022-08-28T08:02:59.863Z,6.50
2022-08-28T08:04:01.657Z,6.40
2022-08-28T08:04:59.776Z,6.90
2022-08-28T08:05:59.761Z,6.90
2022-08-28T08:06:59.748Z,6.90
2022-08-28T08:07:59.732Z,6.90
2022-08-28T08:08:59.729Z,7.40
2022-08-28T08:09:59.718Z,7.80
2022-08-28T08:10:59.708Z,6.50
2022-08-28T08:11:59.684Z,6.30
2022-08-28T08:12:59.668Z,6.70
2022-08-28T08:13:59.660Z,6.50
2022-08-28T08:14:59.659Z,6.40
2022-08-28T08:15:59.698Z,6.90
2022-08-28T08:16:59.621Z,7.60
2022-08-28T08:17:59.615Z,7.40
2022-08-28T08:19:00.592Z,6.70
2022-08-28T08:19:59.590Z,6.30
2022-08-28T08:20:59.581Z,7.40
2022-08-28T08:21:59.550Z,6.30
2022-08-28T08:22:59.543Z,6.70
2022-08-28T08:23:59.532Z,6.40
2022-08-28T08:24:59.530Z,6.40
2022-08-28T08:25:59.501Z,6.40
2022-08-28T08:27:00.640Z,6.20
2022-08-28T08:27:59.470Z,6.20
2022-08-28T08:28:59.477Z,6.10
2022-08-28T08:29:59.464Z,6.30
2022-08-28T08:30:59.471Z,6.10
2022-08-28T08:31:59.431Z,5.60
2022-08-28T08:32:59.414Z,6.60
2022-08-28T08:33:59.393Z,5.90
2022-08-28T08:34:59.416Z,5.90
2022-08-28T08:35:59.371Z,6.20
2022-08-28T08:36:59.376Z,5.60
2022-08-28T08:38:02.768Z,6.40
2022-08-28T08:39:00.359Z,5.80
2022-08-28T08:39:59.355Z,5.90
2022-08-28T08:40:59.340Z,5.70
2022-08-28T08:41:59.305Z,5.90
2022-08-28T08:42:59.293Z,5.70
2022-08-28T08:43:59.277Z,5.40
2022-08-28T08:44:59.277Z,5.50
2022-08-28T08:45:59.308Z,5.20
2022-08-28T08:46:59.238Z,5.00
2022-08-28T08:47:59.227Z,5.10
2022-08-28T08:48:59.227Z,5.50
2022-08-28T08:50:00.207Z,5.40
2022-08-28T08:50:59.198Z,5.50
2022-08-28T08:51:59.187Z,4.90
2022-08-28T08:52:59.172Z,4.90
2022-08-28T08:53:59.158Z,5.00
2022-08-28T08:54:59.503Z,5.20
2022-08-28T08:56:00.135Z,5.20
2022-08-28T08:56:59.112Z,5.40
2022-08-28T08:57:59.090Z,5.40
2022-08-28T08:58:59.090Z,5.00
2022-08-28T08:59:59.099Z,5.20
2022-08-28T09:00:59.072Z,5.50
2022-08-28T09:01:59.114Z,4.70
2022-08-28T09:02:59.075Z,5.20
2022-08-28T09:03:59.114Z,4.80
2022-08-28T09:04:59.021Z,5.20
2022-08-28T09:05:59.016Z,5.10
2022-08-28T09:06:58.992Z,5.40
2022-08-28T09:07:58.971Z,5.20
2022-08-28T09:08:58.962Z,4.80
2022-08-28T09:09:58.952Z,5.30
2022-08-28T09:10:58.973Z,4.90
2022-08-28T09:11:58.932Z,5.20
2022-08-28T09:12:58.911Z,4.70
2022-08-28T09:13:58.893Z,4.80
2022-08-28T09:14:58.905Z,5.00
2022-08-28T09:15:58.919Z,4.70
2022-08-28T09:16:59.857Z,4.70
2022-08-28T09:17:58.835Z,4.30
2022-08-28T09:18:58.844Z,5.00
2022-08-28T09:19:58.834Z,4.40
2022-08-28T09:20:59.809Z,4.40
2022-08-28T09:21:59.787Z,4.50
2022-08-28T09:22:58.774Z,4.40
2022-08-28T09:23:58.775Z,4.50
2022-08-28T09:24:58.747Z,4.70
2022-08-28T09:26:01.645Z,4.70
2022-08-28T09:26:58.717Z,5.00
2022-08-28T09:27:58.708Z,5.40
2022-08-28T09:28:58.706Z,5.00
2022-08-28T09:29:58.676Z,4.10
2022-08-28T09:30:58.734Z,4.40
2022-08-28T09:31:59.647Z,4.40
2022-08-28T09:32:58.637Z,4.40
2022-08-28T09:33:58.643Z,5.10
2022-08-28T09:34:58.619Z,4.40
2022-08-28T09:35:58.600Z,4.60
2022-08-28T09:36:59.587Z,4.60
2022-08-28T09:37:58.582Z,4.50
2022-08-28T09:38:58.570Z,4.40
2022-08-28T09:39:58.583Z,4.80
2022-08-28T09:40:58.536Z,4.50
2022-08-28T09:41:58.532Z,3.90
2022-08-28T09:42:58.516Z,4.40
2022-08-28T09:43:58.507Z,4.40
2022-08-28T09:44:59.771Z,4.40
2022-08-28T09:45:59.514Z,4.10
2022-08-28T09:46:58.444Z,4.30
2022-08-28T10:04:16.753Z,5.60
2022-08-28T10:05:16.670Z,5.10
2022-08-28T10:06:16.617Z,4.80
2022-08-28T10:07:16.625Z,4.30
2022-08-28T10:08:17.602Z,4.40
2022-08-28T10:09:16.610Z,4.00
2022-08-28T10:10:17.216Z,4.20
2022-08-28T10:11:16.563Z,4.10
2022-08-28T10:12:16.543Z,4.00
2022-08-28T10:13:17.539Z,4.00
2022-08-28T10:14:16.538Z,4.30
2022-08-28T10:15:16.548Z,4.30
2022-08-28T10:16:16.689Z,4.40
2022-08-28T10:17:24.011Z,4.00
2022-08-28T10:18:16.463Z,3.80
2022-08-28T10:19:16.463Z,4.00
2022-08-28T10:20:16.463Z,4.00
2022-08-28T10:21:16.453Z,4.20
2022-08-28T10:22:16.418Z,4.00
2022-08-28T10:23:17.789Z,3.70
2022-08-28T10:24:16.403Z,4.00
2022-08-28T10:25:17.404Z,4.10
2022-08-28T10:26:16.376Z,3.70
2022-08-28T10:27:16.364Z,4.50
2022-08-28T10:28:16.346Z,3.80
2022-08-28T10:29:16.325Z,4.00
2022-08-28T10:30:16.355Z,4.00
2022-08-28T10:31:16.402Z,4.10
2022-08-28T10:32:16.286Z,4.10
2022-08-28T10:33:16.288Z,4.00
2022-08-28T10:34:16.267Z,4.10
2022-08-28T10:35:16.268Z,4.20
2022-08-28T10:36:27.351Z,4.50
2022-08-28T10:37:17.230Z,3.80
2022-08-28T10:38:16.219Z,4.10
2022-08-28T10:39:16.199Z,3.70
2022-08-28T10:40:16.266Z,3.80
2022-08-28T10:41:16.198Z,4.10
2022-08-28T10:42:16.178Z,3.70
2022-08-28T10:43:16.152Z,3.70
2022-08-28T10:44:16.149Z,3.90
2022-08-28T10:45:16.127Z,4.00
2022-08-28T10:46:16.184Z,4.00
2022-08-28T10:47:16.110Z,3.80
2022-08-28T10:48:16.099Z,4.00
2022-08-28T10:49:16.076Z,3.90
2022-08-28T10:50:16.051Z,3.90
2022-08-28T10:51:16.059Z,3.70
2022-08-28T10:52:16.051Z,3.80
2022-08-28T10:53:16.039Z,4.00
2022-08-28T10:54:17.030Z,3.80
2022-08-28T10:55:16.016Z,4.00
2022-08-28T10:56:15.981Z,3.70
2022-08-28T10:57:15.973Z,3.80
2022-08-28T10:58:24.783Z,3.60
2022-08-28T10:59:16.963Z,4.00
2022-08-28T11:00:15.932Z,3.90
2022-08-28T11:01:15.993Z,3.70
2022-08-28T11:02:15.943Z,4.50
2022-08-28T11:03:33.565Z,4.20
2022-08-28T11:04:23.528Z,4.20
2022-08-28T11:05:16.885Z,4.20
2022-08-28T11:06:15.855Z,3.80
2022-08-28T11:07:15.836Z,3.80
2022-08-28T11:08:15.816Z,4.00
2022-08-28T11:09:15.813Z,3.90
2022-08-28T11:10:15.805Z,3.70
2022-08-28T11:11:15.797Z,3.80
2022-08-28T11:12:15.777Z,4.00
2022-08-28T11:13:15.803Z,4.20
2022-08-28T11:14:15.737Z,3.70
2022-08-28T11:15:15.738Z,3.80
2022-08-28T11:16:15.734Z,4.00
2022-08-28T11:17:15.721Z,3.90
2022-08-28T11:18:15.705Z,4.00
2022-08-28T11:19:15.683Z,3.50
2022-08-28T11:20:15.693Z,3.90
2022-08-28T11:21:15.656Z,3.80
2022-08-28T11:22:15.627Z,3.40
2022-08-28T11:23:15.631Z,3.80
2022-08-28T11:24:15.632Z,3.50
2022-08-28T11:25:15.613Z,3.70
2022-08-28T11:26:15.582Z,3.70
2022-08-28T11:27:16.597Z,4.10
2022-08-28T11:28:15.553Z,3.60
2022-08-28T11:29:15.561Z,3.80
2022-08-28T11:30:15.554Z,3.30
2022-08-28T11:31:28.727Z,3.90
2022-08-28T11:32:16.518Z,2.90
2022-08-28T11:33:15.499Z,3.60
2022-08-28T11:34:15.482Z,3.30
2022-08-28T11:35:15.470Z,3.40
2022-08-28T11:36:15.463Z,3.20
2022-08-28T11:37:15.460Z,3.50
2022-08-28T11:38:18.422Z,3.60
2022-08-28T11:39:15.422Z,3.80
2022-08-28T11:40:15.546Z,3.60
2022-08-28T11:41:15.440Z,3.70
2022-08-28T11:42:15.374Z,3.70
2022-08-28T11:43:16.166Z,3.30
2022-08-28T11:44:15.355Z,4.00
2022-08-28T11:45:15.367Z,3.30
2022-08-28T11:46:15.361Z,3.50
2022-08-28T11:47:15.328Z,3.50
2022-08-28T11:48:15.310Z,3.30
2022-08-28T11:49:15.278Z,3.50
2022-08-28T11:50:15.288Z,3.20
2022-08-28T11:51:16.262Z,3.90
2022-08-28T11:52:15.235Z,3.40
2022-08-28T11:53:15.288Z,3.20
2022-08-28T11:54:15.219Z,3.50
2022-08-28T11:55:16.229Z,3.30
2022-08-28T11:56:28.287Z,3.90
2022-08-28T11:57:16.180Z,3.50
2022-08-28T11:58:45.471Z,3.10
2022-08-28T11:59:45.442Z,3.50
2022-08-28T12:00:45.453Z,3.50
2022-08-28T12:01:45.456Z,3.80
2022-08-28T12:02:45.479Z,3.70
2022-08-28T12:03:45.403Z,3.30
2022-08-28T12:04:45.449Z,3.70
2022-08-28T12:05:45.613Z,3.60
2022-08-28T12:06:45.496Z,3.60
2022-08-28T12:07:45.667Z,3.40
2022-08-28T12:12:04.248Z,3.30
2022-08-28T12:12:43.242Z,3.50
2022-08-28T12:13:50.687Z,3.70
2022-08-28T12:14:45.208Z,3.40
2022-08-28T12:15:43.288Z,3.70
2022-08-28T12:16:43.187Z,3.40
2022-08-28T12:17:43.137Z,3.70
2022-08-28T12:18:43.209Z,3.40
2022-08-28T12:19:55.204Z,3.70
2022-08-28T12:20:44.167Z,3.80
2022-08-28T12:21:43.108Z,3.40
2022-08-28T12:22:43.124Z,3.50
2022-08-28T12:23:43.096Z,3.40
2022-08-28T12:24:43.099Z,4.00
2022-08-28T12:25:46.207Z,4.00
2022-08-28T12:26:43.151Z,3.40
2022-08-28T12:27:44.041Z,3.60
2022-08-28T12:28:43.032Z,4.10
2022-08-28T12:29:43.053Z,3.80
2022-08-28T12:30:44.019Z,3.40
2022-08-28T12:31:45.040Z,3.70
2022-08-28T12:32:42.976Z,3.80
2022-08-28T12:33:42.922Z,3.60
2022-08-28T12:34:42.981Z,4.20
2022-08-28T12:35:43.883Z,3.80
2022-08-28T12:36:43.922Z,3.90
2022-08-28T12:37:52.215Z,3.60
2022-08-28T12:38:44.071Z,3.50
2022-08-28T12:39:42.934Z,3.40
2022-08-28T12:40:42.979Z,3.80
2022-08-28T12:41:42.823Z,3.90
2022-08-28T12:42:42.826Z,4.20
2022-08-28T12:43:46.807Z,4.00
2022-08-28T12:44:42.765Z,3.70
2022-08-28T12:45:42.834Z,3.80
2022-08-28T12:46:42.784Z,4.00
2022-08-28T12:47:42.756Z,3.80
2022-08-28T12:48:42.756Z,3.70
2022-08-28T12:49:42.724Z,4.20
2022-08-28T12:50:42.954Z,3.70
2022-08-28T12:51:43.203Z,3.90
2022-08-28T12:52:43.339Z,4.20
2022-08-28T12:53:42.657Z,3.70
2022-08-28T12:54:42.690Z,3.80
2022-08-28T12:55:42.669Z,4.00
2022-08-28T12:56:42.617Z,3.60
2022-08-28T12:57:42.623Z,3.70
2022-08-28T12:58:42.622Z,3.60
2022-08-28T12:59:42.639Z,4.10
2022-08-28T13:00:42.578Z,3.80
2022-08-28T13:01:42.867Z,4.10
2022-08-28T13:02:46.416Z,3.70
2022-08-28T13:03:43.531Z,3.80
2022-08-28T13:04:42.538Z,3.40
2022-08-28T13:05:42.522Z,3.80
2022-08-28T13:06:42.506Z,4.20
2022-08-28T13:07:43.042Z,3.60
2022-08-28T13:08:42.513Z,3.70
2022-08-28T13:09:42.521Z,4.10
2022-08-28T13:10:43.482Z,4.00
2022-08-28T13:11:42.549Z,3.50
2022-08-28T13:12:54.693Z,3.50
2022-08-28T13:13:43.463Z,3.40
2022-08-28T13:14:42.569Z,3.60
2022-08-28T13:15:42.514Z,4.00
2022-08-28T13:16:42.538Z,3.90
2022-08-28T13:17:42.346Z,4.00
2022-08-28T13:18:42.380Z,4.10
2022-08-28T13:19:42.407Z,3.80
2022-08-28T13:20:42.345Z,3.90
2022-08-28T13:21:42.288Z,3.90
2022-08-28T13:22:50.564Z,4.00
2022-08-28T13:23:45.621Z,4.00
2022-08-28T13:24:42.289Z,3.80
2022-08-28T13:25:42.315Z,4.10
2022-08-28T13:26:42.219Z,4.10
2022-08-28T13:27:42.358Z,3.70
2022-08-28T13:28:42.268Z,4.10
2022-08-28T13:29:42.330Z,4.00
2022-08-28T13:30:42.321Z,3.90
2022-08-28T13:31:42.223Z,4.00
2022-08-28T13:32:42.161Z,4.10
2022-08-28T13:33:42.215Z,4.10
2022-08-28T13:34:47.816Z,4.20
2022-08-28T13:35:43.192Z,4.00
2022-08-28T13:36:42.333Z,3.50
2022-08-28T13:37:42.226Z,4.00
2022-08-28T13:38:42.254Z,4.00